createdAt,value
2023-04-10T00:02:25.271Z,2.00
2023-04-10T00:04:52.250Z,2.10
2023-04-10T00:07:19.144Z,2.10
2023-04-10T00:09:45.904Z,2.20
2023-04-10T00:12:12.678Z,2.20
2023-04-10T00:14:39.338Z,2.20
2023-04-10T00:17:06.267Z,2.20
2023-04-10T00:19:32.978Z,2.20
2023-04-10T00:21:59.728Z,2.20
2023-04-10T00:24:26.786Z,2.20
2023-04-10T00:26:57.471Z,2.20
2023-04-10T00:29:27.248Z,2.20
2023-04-10T00:31:53.965Z,2.10
2023-04-10T00:34:22.810Z,2.00
2023-04-10T00:36:49.532Z,1.90
2023-04-10T00:39:16.611Z,1.70
2023-04-10T00:41:43.399Z,1.50
2023-04-10T00:44:12.977Z,1.40
2023-04-10T00:46:40.337Z,1.30
2023-04-10T00:49:07.489Z,1.30
2023-04-10T00:51:34.163Z,1.30
2023-04-10T00:54:02.436Z,1.30
2023-04-10T00:56:31.316Z,1.20
2023-04-10T00:58:58.021Z,1.30
2023-04-10T01:01:24.772Z,1.50
2023-04-10T01:03:52.835Z,1.70
2023-04-10T01:06:38.957Z,2.00
2023-04-10T01:09:31.188Z,2.30
2023-04-10T01:12:16.368Z,2.60
2023-04-10T01:14:51.782Z,2.70
2023-04-10T01:17:31.917Z,2.70
2023-04-10T01:20:10.333Z,2.70
2023-04-10T01:22:52.114Z,2.70
2023-04-10T01:25:43.518Z,2.70
2023-04-10T01:28:24.412Z,2.70
2023-04-10T01:30:56.708Z,2.80
2023-04-10T01:33:29.777Z,2.70
2023-04-10T01:36:00.972Z,2.70
2023-04-10T01:38:29.451Z,2.50
2023-04-10T01:41:01.177Z,2.40
2023-04-10T01:43:32.654Z,2.30
2023-04-10T01:46:02.173Z,2.20
2023-04-10T01:48:31.988Z,2.10
2023-04-10T01:51:01.570Z,2.00
2023-04-10T01:53:29.382Z,2.00
2023-04-10T01:55:56.298Z,2.00
2023-04-10T01:58:28.676Z,1.90
2023-04-10T02:00:55.615Z,1.90
2023-04-10T02:03:22.540Z,1.90
2023-04-10T02:06:04.229Z,1.90
2023-04-10T02:08:42.576Z,1.90
2023-04-10T02:11:28.032Z,1.90
2023-04-10T02:13:59.968Z,1.60
2023-04-10T02:16:29.441Z,1.40
2023-04-10T02:19:03.423Z,1.20
2023-04-10T02:21:31.094Z,1.10
2023-04-10T02:23:58.417Z,1.00
2023-04-10T02:26:25.240Z,1.00
2023-04-10T02:28:55.147Z,0.90
2023-04-10T02:31:21.832Z,0.70
2023-04-10T02:33:48.623Z,0.70
2023-04-10T02:36:15.436Z,0.70
2023-04-10T02:38:42.142Z,0.70
2023-04-10T02:41:08.812Z,0.70
2023-04-10T02:43:35.614Z,0.60
2023-04-10T02:46:02.481Z,0.70
2023-04-10T02:48:31.650Z,0.70
2023-04-10T02:50:58.822Z,0.80
2023-04-10T02:53:26.079Z,0.80
2023-04-10T02:55:54.593Z,0.90
2023-04-10T02:58:22.004Z,0.90
2023-04-10T03:00:49.547Z,1.00
2023-04-10T03:03:16.627Z,0.90
2023-04-10T03:05:43.628Z,0.90
2023-04-10T03:08:10.302Z,0.80
2023-04-10T03:10:36.958Z,0.90
2023-04-10T03:13:03.676Z,0.90
2023-04-10T03:15:30.340Z,0.80
2023-04-10T03:17:57.073Z,0.80
2023-04-10T03:20:23.774Z,0.90
2023-04-10T03:22:51.006Z,1.00
2023-04-10T03:25:17.767Z,0.90
2023-04-10T03:27:44.499Z,0.90
2023-04-10T03:30:11.617Z,0.90
2023-04-10T03:32:39.060Z,0.90
2023-04-10T03:35:06.202Z,1.00
2023-04-10T03:37:36.223Z,1.00
2023-04-10T03:40:08.785Z,0.90
2023-04-10T03:42:36.110Z,0.90
2023-04-10T03:45:04.629Z,0.80
2023-04-10T03:47:34.703Z,0.70
2023-04-10T03:50:01.472Z,0.70
2023-04-10T03:52:28.136Z,0.70
2023-04-10T03:54:55.395Z,0.60
2023-04-10T03:57:22.460Z,0.60
2023-04-10T03:59:49.165Z,0.60
2023-04-10T04:02:16.162Z,0.50
2023-04-10T04:04:42.995Z,0.50
2023-04-10T04:07:11.100Z,0.50
2023-04-10T04:09:43.784Z,0.60
2023-04-10T04:12:10.545Z,0.60
2023-04-10T04:14:37.203Z,0.60
2023-04-10T04:17:03.984Z,0.70
2023-04-10T04:19:31.008Z,0.70
2023-04-10T04:21:57.872Z,0.80
2023-04-10T04:24:24.708Z,1.00
2023-04-10T04:26:51.585Z,1.10
2023-04-10T04:29:18.267Z,1.20
2023-04-10T04:31:45.422Z,1.20
2023-04-10T04:34:12.175Z,1.20
2023-04-10T04:36:38.874Z,1.20
2023-04-10T04:39:05.648Z,1.30
2023-04-10T04:41:34.973Z,1.20
2023-04-10T04:44:02.652Z,1.20
2023-04-10T04:46:29.613Z,1.30
2023-04-10T04:48:56.393Z,1.40
2023-04-10T04:51:28.658Z,1.40
2023-04-10T04:53:58.535Z,1.40
2023-04-10T04:56:25.221Z,1.50
2023-04-10T04:58:52.054Z,1.50
2023-04-10T05:01:19.082Z,1.60
2023-04-10T05:03:46.021Z,1.70
2023-04-10T05:06:14.283Z,1.70
2023-04-10T05:08:41.189Z,1.80
2023-04-10T05:11:07.912Z,1.90
2023-04-10T05:13:34.635Z,2.00
2023-04-10T05:16:01.642Z,2.10
2023-04-10T05:18:28.541Z,2.20
2023-04-10T05:20:55.515Z,2.40
2023-04-10T05:23:22.215Z,2.50
2023-04-10T05:25:48.843Z,2.70
2023-04-10T05:28:15.518Z,2.80
2023-04-10T05:30:42.190Z,3.00
2023-04-10T05:33:09.947Z,3.20
2023-04-10T05:35:36.700Z,3.30
2023-04-10T05:38:03.463Z,3.40
2023-04-10T05:40:30.263Z,3.60
2023-04-10T05:42:57.536Z,3.70
2023-04-10T05:45:24.305Z,3.80
2023-04-10T05:47:50.996Z,3.90
2023-04-10T05:50:17.876Z,4.10
2023-04-10T05:52:46.926Z,4.10
2023-04-10T05:55:13.683Z,4.20
2023-04-10T05:57:40.530Z,4.40
2023-04-10T06:00:08.093Z,4.40
2023-04-10T06:02:35.828Z,4.60
2023-04-10T06:05:03.226Z,4.70
2023-04-10T06:07:30.012Z,4.80
2023-04-10T06:09:56.774Z,5.10
2023-04-10T06:12:23.571Z,5.60
2023-04-10T06:14:50.241Z,6.00
2023-04-10T06:17:19.001Z,6.60
2023-04-10T06:19:46.841Z,7.30
2023-04-10T06:22:16.151Z,7.90
2023-04-10T06:24:42.995Z,8.40
2023-04-10T06:27:09.813Z,8.90
2023-04-10T06:29:37.713Z,9.00
2023-04-10T06:32:04.432Z,9.00
2023-04-10T06:34:31.074Z,9.20
2023-04-10T06:37:00.497Z,9.10
2023-04-10T06:39:27.205Z,9.00
2023-04-10T06:41:57.753Z,9.20
2023-04-10T06:44:24.389Z,9.80
2023-04-10T06:46:51.158Z,10.20
2023-04-10T06:49:17.946Z,10.40
2023-04-10T06:51:46.084Z,10.70
2023-04-10T06:54:12.749Z,10.90
2023-04-10T06:56:39.430Z,10.90
2023-04-10T06:59:06.468Z,10.90
2023-04-10T07:01:33.285Z,11.20
2023-04-10T07:04:00.064Z,11.50
2023-04-10T07:06:27.483Z,11.70
2023-04-10T07:08:54.419Z,11.90
2023-04-10T07:11:21.572Z,11.80
2023-04-10T07:13:48.797Z,12.10
2023-04-10T07:16:16.917Z,12.30
2023-04-10T07:18:45.118Z,12.20
2023-04-10T07:21:13.237Z,12.50
2023-04-10T07:23:40.096Z,12.70
2023-04-10T07:26:07.026Z,12.80
2023-04-10T07:28:33.762Z,12.30
2023-04-10T07:31:00.660Z,12.50
2023-04-10T07:33:27.508Z,12.50
2023-04-10T07:35:54.237Z,12.80
2023-04-10T07:38:21.195Z,13.50
2023-04-10T07:40:48.314Z,13.70
2023-04-10T07:43:15.500Z,13.90
2023-04-10T07:45:42.708Z,14.30
2023-04-10T07:48:09.581Z,13.90
2023-04-10T07:50:36.278Z,13.70
2023-04-10T07:53:07.575Z,13.70
2023-04-10T07:55:44.321Z,14.10
2023-04-10T07:58:11.277Z,14.60
2023-04-10T08:00:37.981Z,14.60
2023-04-10T08:03:06.504Z,14.90
2023-04-10T08:05:33.837Z,14.90
2023-04-10T08:08:03.085Z,15.30
2023-04-10T08:10:29.739Z,15.30
2023-04-10T08:12:56.387Z,15.10
2023-04-10T08:15:23.220Z,15.00
2023-04-10T08:17:53.872Z,14.80
2023-04-10T08:20:21.079Z,15.00
2023-04-10T08:22:47.808Z,14.30
2023-04-10T08:25:15.203Z,14.50
2023-04-10T08:27:41.893Z,15.00
2023-04-10T08:30:09.011Z,15.20
2023-04-10T08:32:36.440Z,15.50
2023-04-10T08:35:03.277Z,15.50
2023-04-10T08:37:30.005Z,15.50
2023-04-10T08:39:56.769Z,15.60
2023-04-10T08:42:23.550Z,15.80
2023-04-10T08:44:50.478Z,15.70
2023-04-10T08:47:23.075Z,16.10
2023-04-10T08:50:05.518Z,16.50
2023-04-10T08:52:36.358Z,17.00
2023-04-10T08:55:07.424Z,16.80
2023-04-10T08:57:36.882Z,17.20
2023-04-10T09:00:15.936Z,17.10
2023-04-10T09:02:57.884Z,17.20
2023-04-10T09:05:27.902Z,17.40
2023-04-10T09:07:54.654Z,17.50
2023-04-10T09:10:21.758Z,16.80
2023-04-10T09:12:49.179Z,16.20
2023-04-10T09:15:16.357Z,16.70
2023-04-10T09:18:01.241Z,17.10
2023-04-10T09:20:31.097Z,17.70
2023-04-10T09:22:58.443Z,17.70
2023-04-10T09:25:39.527Z,18.30
2023-04-10T09:28:08.252Z,18.80
2023-04-10T09:30:37.496Z,19.20
2023-04-10T09:33:20.604Z,19.20
2023-04-10T09:35:47.508Z,19.30
2023-04-10T09:38:16.634Z,18.00
2023-04-10T09:40:43.798Z,18.30
2023-04-10T09:43:23.406Z,18.50
2023-04-10T09:45:52.684Z,18.60
2023-04-10T09:48:20.383Z,18.00
2023-04-10T09:50:47.125Z,17.60
2023-04-10T09:53:15.752Z,17.80
2023-04-10T09:55:46.703Z,17.60
2023-04-10T09:58:14.405Z,17.40
2023-04-10T10:00:49.342Z,17.00
2023-04-10T10:03:18.267Z,16.90
2023-04-10T10:05:47.504Z,16.90
2023-04-10T10:08:15.761Z,17.20
2023-04-10T10:10:53.390Z,17.20
2023-04-10T10:13:23.085Z,17.30
2023-04-10T10:16:08.520Z,17.50
2023-04-10T10:18:52.252Z,17.30
2023-04-10T10:21:20.823Z,17.40
2023-04-10T10:23:54.271Z,17.50
2023-04-10T10:26:24.430Z,17.70
2023-04-10T10:28:54.960Z,17.60
2023-04-10T10:31:25.248Z,18.20
2023-04-10T10:33:53.227Z,18.40
2023-04-10T10:36:20.634Z,18.30
2023-04-10T10:39:05.093Z,18.30
2023-04-10T10:41:40.786Z,18.30
2023-04-10T10:44:14.201Z,18.40
2023-04-10T10:47:01.231Z,18.80
2023-04-10T10:50:03.898Z,19.30
2023-04-10T10:52:36.782Z,19.50
2023-04-10T10:55:22.369Z,19.30
2023-04-10T10:57:53.429Z,19.30
2023-04-10T11:00:21.967Z,19.70
2023-04-10T11:03:07.419Z,19.50
2023-04-10T11:05:51.175Z,19.50
2023-04-10T11:08:18.508Z,19.30
2023-04-10T11:10:59.826Z,19.80
2023-04-10T11:13:26.504Z,20.10
2023-04-10T11:15:54.429Z,20.40
2023-04-10T11:18:51.215Z,20.00
2023-04-10T11:21:23.764Z,19.90
2023-04-10T11:23:50.492Z,19.40
2023-04-10T11:26:35.863Z,19.50
2023-04-10T11:29:06.471Z,19.30
2023-04-10T11:31:34.410Z,19.60
2023-04-10T11:34:21.222Z,19.30
2023-04-10T11:36:49.915Z,19.20
2023-04-10T11:39:20.485Z,19.40
2023-04-10T11:41:52.020Z,19.70
2023-04-10T11:44:31.666Z,20.00
2023-04-10T11:46:59.091Z,20.30
2023-04-10T11:49:30.185Z,20.00
2023-04-10T11:51:57.202Z,19.90
2023-04-10T11:54:31.260Z,20.40
2023-04-10T11:57:02.366Z,20.60
2023-04-10T11:59:30.349Z,20.70
2023-04-10T12:02:15.020Z,20.50
2023-04-10T12:04:43.621Z,20.00
2023-04-10T12:07:10.999Z,20.10
2023-04-10T12:09:37.740Z,21.00
2023-04-10T12:12:08.684Z,21.60
2023-04-10T12:14:41.523Z,21.30
2023-04-10T12:17:10.638Z,21.20
2023-04-10T12:19:39.499Z,20.90
2023-04-10T12:22:07.512Z,20.60
2023-04-10T12:24:51.360Z,20.80
2023-04-10T12:27:21.844Z,20.50
2023-04-10T12:29:50.647Z,20.40
2023-04-10T12:32:17.563Z,20.60
2023-04-10T12:34:59.171Z,21.00
2023-04-10T12:37:47.268Z,21.00
2023-04-10T12:40:14.632Z,21.40
2023-04-10T12:42:45.038Z,21.60
2023-04-10T12:45:14.100Z,21.60
2023-04-10T12:47:46.305Z,20.80
2023-04-10T12:50:17.807Z,20.60
2023-04-10T12:53:03.060Z,20.50
2023-04-10T12:55:31.152Z,21.20
2023-04-10T12:58:17.455Z,20.80
2023-04-10T13:00:44.426Z,21.00
2023-04-10T13:03:11.511Z,21.30
2023-04-10T13:05:38.939Z,21.60
2023-04-10T13:08:05.814Z,21.00
2023-04-10T13:10:32.532Z,21.00
2023-04-10T13:13:02.392Z,21.20
2023-04-10T13:15:29.061Z,20.70
2023-04-10T13:17:58.807Z,20.90
2023-04-10T13:20:25.957Z,21.10
2023-04-10T13:22:52.738Z,21.30
2023-04-10T13:25:19.424Z,20.50
2023-04-10T13:27:48.912Z,20.40
2023-04-10T13:30:15.582Z,20.10
2023-04-10T13:32:42.480Z,19.90
2023-04-10T13:35:09.387Z,20.20
2023-04-10T13:37:36.664Z,20.10
2023-04-10T13:40:05.070Z,20.40
2023-04-10T13:42:31.741Z,20.70
2023-04-10T13:44:58.379Z,21.00
2023-04-10T13:47:25.057Z,21.60
2023-04-10T13:49:51.761Z,21.90
2023-04-10T13:52:18.508Z,21.30
2023-04-10T13:54:46.190Z,21.00
2023-04-10T13:57:12.833Z,21.40
2023-04-10T13:59:39.506Z,20.70
2023-04-10T14:02:06.717Z,20.90
2023-04-10T14:04:33.429Z,20.90
2023-04-10T14:07:02.029Z,20.60
2023-04-10T14:09:28.995Z,20.40
2023-04-10T14:11:56.096Z,20.50
2023-04-10T14:14:25.786Z,20.70
2023-04-10T14:16:52.526Z,20.20
2023-04-10T14:19:21.999Z,20.00
2023-04-10T14:21:48.665Z,20.00
2023-04-10T14:24:15.380Z,20.50
2023-04-10T14:26:42.061Z,20.50
2023-04-10T14:29:09.106Z,20.60
2023-04-10T14:31:41.300Z,20.20
2023-04-10T14:34:13.782Z,20.00
2023-04-10T14:36:40.764Z,20.10
2023-04-10T14:39:07.429Z,20.50
2023-04-10T14:41:34.134Z,20.90
2023-04-10T14:44:01.830Z,20.90
2023-04-10T14:46:28.874Z,20.70
2023-04-10T14:48:55.620Z,20.30
2023-04-10T14:51:24.063Z,19.90
2023-04-10T14:53:50.716Z,19.70
2023-04-10T14:56:18.103Z,19.50
2023-04-10T14:58:47.092Z,19.40
2023-04-10T15:01:14.146Z,19.20
2023-04-10T15:03:41.947Z,18.90
2023-04-10T15:06:08.902Z,19.00
2023-04-10T15:08:35.700Z,18.70
2023-04-10T15:11:05.053Z,18.80
2023-04-10T15:13:33.336Z,18.70
2023-04-10T15:16:00.654Z,18.80
2023-04-10T15:18:27.476Z,18.80
2023-04-10T15:20:55.858Z,19.00
2023-04-10T15:23:22.717Z,19.20
2023-04-10T15:25:51.132Z,19.30
2023-04-10T15:28:17.778Z,19.30
2023-04-10T15:30:45.093Z,19.30
2023-04-10T15:33:11.813Z,19.30
2023-04-10T15:35:38.506Z,19.40
2023-04-10T15:38:06.554Z,19.50
2023-04-10T15:40:36.564Z,19.70
2023-04-10T15:43:03.409Z,20.00
2023-04-10T15:45:30.121Z,20.00
2023-04-10T15:47:58.613Z,19.90
2023-04-10T15:50:25.262Z,20.20
2023-04-10T15:52:52.024Z,20.10
2023-04-10T15:55:18.855Z,20.30
2023-04-10T15:57:45.747Z,20.50
2023-04-10T16:00:13.730Z,20.80
2023-04-10T16:02:40.724Z,20.60
2023-04-10T16:05:09.100Z,20.40
2023-04-10T16:07:38.190Z,20.20
2023-04-10T16:10:09.280Z,19.90
2023-04-10T16:12:36.116Z,19.50
2023-04-10T16:15:04.387Z,19.00
2023-04-10T16:17:31.265Z,18.60
2023-04-10T16:19:57.949Z,18.40
2023-04-10T16:22:24.640Z,18.40
2023-04-10T16:24:55.452Z,18.30
2023-04-10T16:27:22.233Z,18.30
2023-04-10T16:29:48.929Z,18.20
2023-04-10T16:32:16.092Z,18.10
2023-04-10T16:34:42.798Z,17.90
2023-04-10T16:37:09.493Z,17.70
2023-04-10T16:39:36.185Z,17.60
2023-04-10T16:42:03.490Z,17.40
2023-04-10T16:44:30.791Z,17.20
2023-04-10T16:46:57.522Z,17.10
2023-04-10T16:49:24.545Z,16.90
2023-04-10T16:51:51.406Z,16.70
2023-04-10T16:54:18.222Z,16.60
2023-04-10T16:56:44.974Z,16.60
2023-04-10T16:59:11.732Z,16.50
2023-04-10T17:01:39.778Z,16.40
2023-04-10T17:04:07.994Z,16.30
2023-04-10T17:06:37.995Z,16.20
2023-04-10T17:09:04.878Z,16.00
2023-04-10T17:11:31.573Z,15.90
2023-04-10T17:14:00.336Z,15.80
2023-04-10T17:16:27.177Z,15.80
2023-04-10T17:18:53.992Z,15.70
2023-04-10T17:21:23.852Z,15.80
2023-04-10T17:23:50.610Z,15.80
2023-04-10T17:26:17.321Z,15.80
2023-04-10T17:28:45.343Z,15.80
2023-04-10T17:31:17.095Z,15.60
2023-04-10T17:33:47.084Z,15.50
2023-04-10T17:36:14.252Z,15.30
2023-04-10T17:38:42.119Z,15.10
2023-04-10T17:41:09.905Z,15.00
2023-04-10T17:43:36.687Z,14.90
2023-04-10T17:46:03.430Z,14.90
2023-04-10T17:48:30.449Z,14.80
2023-04-10T17:51:06.237Z,14.70
2023-04-10T17:53:33.066Z,14.70
2023-04-10T17:56:02.041Z,14.60
2023-04-10T17:58:28.720Z,14.60
2023-04-10T18:00:55.645Z,14.50
2023-04-10T18:03:22.391Z,14.50
2023-04-10T18:05:49.442Z,14.50
2023-04-10T18:08:16.766Z,14.40
2023-04-10T18:10:43.405Z,14.40
2023-04-10T18:13:10.444Z,14.40
2023-04-10T18:15:37.077Z,14.40
2023-04-10T18:18:03.915Z,14.40
2023-04-10T18:20:30.654Z,14.30
2023-04-10T18:22:57.455Z,14.30
2023-04-10T18:25:24.120Z,14.30
2023-04-10T18:28:12.945Z,14.30
2023-04-10T18:30:42.207Z,14.30
2023-04-10T18:33:11.061Z,14.30
2023-04-10T18:35:38.399Z,14.30
2023-04-10T18:38:08.198Z,14.30
2023-04-10T18:40:36.729Z,14.30
2023-04-10T18:43:03.539Z,14.30
2023-04-10T18:45:31.009Z,14.30
2023-04-10T18:47:57.694Z,14.20
2023-04-10T18:50:24.360Z,14.10
2023-04-10T18:52:50.997Z,14.00
2023-04-10T18:55:18.131Z,13.90
2023-04-10T18:57:47.898Z,14.00
2023-04-10T19:00:17.586Z,13.90
2023-04-10T19:02:44.609Z,13.90
2023-04-10T19:05:14.251Z,13.80
2023-04-10T19:07:47.302Z,13.80
2023-04-10T19:10:20.134Z,13.80
2023-04-10T19:12:50.320Z,13.80
2023-04-10T19:15:17.009Z,13.80
2023-04-10T19:17:43.688Z,13.70
2023-04-10T19:20:10.795Z,13.60
2023-04-10T19:22:40.398Z,13.60
2023-04-10T19:25:07.441Z,13.50
2023-04-10T19:27:34.218Z,13.40
2023-04-10T19:30:00.863Z,13.30
2023-04-10T19:32:27.577Z,13.30
2023-04-10T19:34:54.356Z,13.30
2023-04-10T19:37:21.476Z,13.20
2023-04-10T19:39:48.222Z,13.20
2023-04-10T19:42:15.206Z,13.20
2023-04-10T19:44:41.905Z,13.20
2023-04-10T19:47:08.588Z,13.20
2023-04-10T19:49:35.435Z,13.20
2023-04-10T19:52:02.188Z,13.20
2023-04-10T19:54:29.826Z,13.20
2023-04-10T19:56:57.639Z,13.20
2023-04-10T19:59:24.662Z,13.10
2023-04-10T20:01:51.520Z,13.00
2023-04-10T20:04:18.717Z,12.90
2023-04-10T20:06:45.708Z,12.90
2023-04-10T20:09:12.427Z,12.80
2023-04-10T20:11:39.097Z,12.80
2023-04-10T20:14:06.036Z,12.80
2023-04-10T20:16:32.778Z,12.80
2023-04-10T20:18:59.524Z,12.80
2023-04-10T20:21:27.573Z,12.80
2023-04-10T20:23:54.416Z,12.70
2023-04-10T20:26:21.122Z,12.70
2023-04-10T20:28:47.756Z,12.60
2023-04-10T20:31:15.220Z,12.60
2023-04-10T20:33:42.175Z,12.50
2023-04-10T20:36:09.183Z,12.50
2023-04-10T20:38:36.117Z,12.40
2023-04-10T20:41:03.236Z,12.40
2023-04-10T20:43:32.998Z,12.40
2023-04-10T20:46:04.433Z,12.40
2023-04-10T20:48:31.490Z,12.50
2023-04-10T20:50:58.163Z,12.50
2023-04-10T20:53:24.943Z,12.50
2023-04-10T20:55:53.972Z,12.50
2023-04-10T20:58:21.100Z,12.60
2023-04-10T21:00:51.154Z,12.60
2023-04-10T21:03:20.387Z,12.60
2023-04-10T21:05:47.216Z,12.60
2023-04-10T21:08:14.883Z,12.60
2023-04-10T21:10:45.018Z,12.60
2023-04-10T21:13:15.429Z,12.60
2023-04-10T21:15:43.016Z,12.60
2023-04-10T21:18:10.251Z,12.50
2023-04-10T21:20:43.345Z,12.50
2023-04-10T21:23:10.062Z,12.50
2023-04-10T21:25:38.610Z,12.50
2023-04-10T21:28:06.057Z,12.50
2023-04-10T21:30:35.046Z,12.50
2023-04-10T21:33:01.954Z,12.50
2023-04-10T21:35:28.817Z,12.60
2023-04-10T21:37:58.903Z,12.60
2023-04-10T21:40:33.792Z,12.70
2023-04-10T21:43:01.402Z,12.70
2023-04-10T21:45:28.089Z,12.70
2023-04-10T21:47:54.783Z,12.80
2023-04-10T21:50:21.624Z,12.90
2023-04-10T21:52:48.264Z,13.00
2023-04-10T21:55:18.250Z,13.00
2023-04-10T21:57:44.955Z,13.10
2023-04-10T22:00:16.179Z,13.10
2023-04-10T22:02:43.252Z,13.20
2023-04-10T22:05:11.474Z,13.20
2023-04-10T22:07:38.284Z,13.10
2023-04-10T22:10:06.005Z,13.00
2023-04-10T22:12:33.124Z,13.00
2023-04-10T22:15:00.226Z,13.00
2023-04-10T22:17:27.089Z,12.90
2023-04-10T22:19:56.785Z,13.00
2023-04-10T22:22:23.546Z,13.00
2023-04-10T22:24:50.241Z,13.20
2023-04-10T22:27:17.199Z,13.20
2023-04-10T22:29:47.699Z,12.80
2023-04-10T22:32:19.904Z,12.10
2023-04-10T22:34:46.612Z,11.40
2023-04-10T22:37:13.274Z,11.10
2023-04-10T22:39:40.004Z,10.80
2023-04-10T22:42:06.645Z,10.60
2023-04-10T22:44:33.283Z,10.50
2023-04-10T22:46:59.932Z,10.40
2023-04-10T22:49:26.600Z,10.30
2023-04-10T22:51:56.818Z,10.20
2023-04-10T22:54:23.494Z,10.20
2023-04-10T22:56:53.096Z,10.10
2023-04-10T22:59:19.811Z,10.10
2023-04-10T23:01:46.671Z,10.10
2023-04-10T23:04:13.500Z,10.10
2023-04-10T23:06:40.515Z,10.00
2023-04-10T23:09:07.217Z,10.10
2023-04-10T23:11:33.948Z,10.10
2023-04-10T23:14:00.727Z,10.10
2023-04-10T23:16:27.507Z,10.30
2023-04-10T23:18:54.530Z,10.30
2023-04-10T23:21:21.815Z,10.20
2023-04-10T23:23:48.480Z,10.30
2023-04-10T23:26:15.168Z,10.40
2023-04-10T23:28:41.868Z,10.60
2023-04-10T23:31:09.131Z,10.70
2023-04-10T23:33:38.373Z,10.80
2023-04-10T23:36:06.226Z,11.00
2023-04-10T23:38:32.891Z,11.00
2023-04-10T23:40:59.522Z,11.10
2023-04-10T23:43:29.223Z,11.00
2023-04-10T23:45:55.961Z,10.80
2023-04-10T23:48:22.841Z,10.70
2023-04-10T23:50:49.516Z,10.60
2023-04-10T23:53:16.513Z,10.60
2023-04-10T23:55:43.463Z,10.50
2023-04-10T23:58:10.487Z,10.50
